sensor_id;sensor_type;location;lat;lon;timestamp;P1;durP1;ratioP1;P2;durP2;ratioP2
21494;SDS011;10909;53.590;10.054;2023-02-28T00:01:30;2.23;;;1.37;;
21494;SDS011;10909;53.590;10.054;2023-02-28T00:04:00;1.87;;;1.40;;
21494;SDS011;10909;53.590;10.054;2023-02-28T00:06:31;3.17;;;1.77;;
21494;SDS011;10909;53.590;10.054;2023-02-28T00:08:58;1.93;;;1.20;;
21494;SDS011;10909;53.590;10.054;2023-02-28T00:11:24;3.97;;;1.40;;
21494;SDS011;10909;53.590;10.054;2023-02-28T00:13:52;1.40;;;1.30;;
21494;SDS011;10909;53.590;10.054;2023-02-28T00:16:21;2.77;;;1.57;;
21494;SDS011;10909;53.590;10.054;2023-02-28T00:18:49;1.77;;;1.37;;
21494;SDS011;10909;53.590;10.054;2023-02-28T00:21:19;2.40;;;1.67;;
21494;SDS011;10909;53.590;10.054;2023-02-28T00:23:46;3.33;;;1.73;;
21494;SDS011;10909;53.590;10.054;2023-02-28T00:26:12;2.43;;;1.80;;
21494;SDS011;10909;53.590;10.054;2023-02-28T00:28:40;2.17;;;1.60;;
21494;SDS011;10909;53.590;10.054;2023-02-28T00:31:08;3.17;;;1.53;;
21494;SDS011;10909;53.590;10.054;2023-02-28T00:33:36;2.93;;;1.60;;
21494;SDS011;10909;53.590;10.054;2023-02-28T00:36:07;2.83;;;1.90;;
21494;SDS011;10909;53.590;10.054;2023-02-28T00:38:37;3.47;;;2.00;;
21494;SDS011;10909;53.590;10.054;2023-02-28T00:41:12;2.10;;;1.60;;
21494;SDS011;10909;53.590;10.054;2023-02-28T00:43:40;3.80;;;1.70;;
21494;SDS011;10909;53.590;10.054;2023-02-28T00:46:08;3.27;;;1.77;;
21494;SDS011;10909;53.590;10.054;2023-02-28T00:48:38;2.07;;;1.57;;
21494;SDS011;10909;53.590;10.054;2023-02-28T00:51:05;3.30;;;1.57;;
21494;SDS011;10909;53.590;10.054;2023-02-28T00:53:37;3.70;;;1.60;;
21494;SDS011;10909;53.590;10.054;2023-02-28T00:56:04;4.03;;;1.80;;
21494;SDS011;10909;53.590;10.054;2023-02-28T00:58:35;3.40;;;1.43;;
21494;SDS011;10909;53.590;10.054;2023-02-28T01:01:06;2.07;;;1.50;;
21494;SDS011;10909;53.590;10.054;2023-02-28T01:03:33;2.90;;;1.60;;
21494;SDS011;10909;53.590;10.054;2023-02-28T01:06:02;2.33;;;1.43;;
21494;SDS011;10909;53.590;10.054;2023-02-28T01:08:30;2.33;;;1.47;;
21494;SDS011;10909;53.590;10.054;2023-02-28T01:10:56;3.33;;;1.50;;
21494;SDS011;10909;53.590;10.054;2023-02-28T01:13:25;3.43;;;1.47;;
21494;SDS011;10909;53.590;10.054;2023-02-28T01:15:54;2.53;;;1.60;;
21494;SDS011;10909;53.590;10.054;2023-02-28T01:18:22;2.10;;;1.37;;
21494;SDS011;10909;53.590;10.054;2023-02-28T01:20:50;1.70;;;1.30;;
21494;SDS011;10909;53.590;10.054;2023-02-28T01:23:18;2.10;;;1.23;;
21494;SDS011;10909;53.590;10.054;2023-02-28T01:25:46;1.43;;;1.30;;
21494;SDS011;10909;53.590;10.054;2023-02-28T01:28:14;4.73;;;1.50;;
21494;SDS011;10909;53.590;10.054;2023-02-28T01:30:49;2.17;;;1.40;;
21494;SDS011;10909;53.590;10.054;2023-02-28T01:33:19;1.77;;;1.50;;
21494;SDS011;10909;53.590;10.054;2023-02-28T01:35:48;1.60;;;1.37;;
21494;SDS011;10909;53.590;10.054;2023-02-28T01:38:23;4.13;;;1.47;;
21494;SDS011;10909;53.590;10.054;2023-02-28T01:40:55;2.53;;;1.37;;
21494;SDS011;10909;53.590;10.054;2023-02-28T01:43:24;1.83;;;1.40;;
21494;SDS011;10909;53.590;10.054;2023-02-28T01:45:59;2.20;;;1.53;;
21494;SDS011;10909;53.590;10.054;2023-02-28T01:48:26;2.60;;;1.67;;
21494;SDS011;10909;53.590;10.054;2023-02-28T01:50:59;2.37;;;1.80;;
21494;SDS011;10909;53.590;10.054;2023-02-28T01:53:37;3.73;;;1.73;;
21494;SDS011;10909;53.590;10.054;2023-02-28T01:56:20;3.10;;;1.80;;
21494;SDS011;10909;53.590;10.054;2023-02-28T01:58:57;2.63;;;1.60;;
21494;SDS011;10909;53.590;10.054;2023-02-28T02:01:25;3.47;;;1.70;;
21494;SDS011;10909;53.590;10.054;2023-02-28T02:03:59;3.20;;;1.77;;
21494;SDS011;10909;53.590;10.054;2023-02-28T02:06:40;2.13;;;1.70;;
21494;SDS011;10909;53.590;10.054;2023-02-28T02:09:18;2.17;;;1.70;;
21494;SDS011;10909;53.590;10.054;2023-02-28T02:11:45;2.53;;;1.47;;
21494;SDS011;10909;53.590;10.054;2023-02-28T02:17:11;1.90;;;1.67;;
21494;SDS011;10909;53.590;10.054;2023-02-28T02:23:26;2.40;;;1.47;;
21494;SDS011;10909;53.590;10.054;2023-02-28T02:29:39;4.17;;;2.20;;
21494;SDS011;10909;53.590;10.054;2023-02-28T02:40:46;2.40;;;1.43;;
21494;SDS011;10909;53.590;10.054;2023-02-28T02:43:29;2.23;;;1.90;;
21494;SDS011;10909;53.590;10.054;2023-02-28T02:46:25;3.70;;;1.67;;
21494;SDS011;10909;53.590;10.054;2023-02-28T02:49:05;2.27;;;1.70;;
21494;SDS011;10909;53.590;10.054;2023-02-28T02:51:34;2.83;;;1.80;;
21494;SDS011;10909;53.590;10.054;2023-02-28T02:54:08;4.90;;;1.80;;
21494;SDS011;10909;53.590;10.054;2023-02-28T02:56:42;2.23;;;1.90;;
21494;SDS011;10909;53.590;10.054;2023-02-28T02:59:12;2.60;;;1.90;;
21494;SDS011;10909;53.590;10.054;2023-02-28T03:01:44;2.83;;;2.07;;
21494;SDS011;10909;53.590;10.054;2023-02-28T03:04:13;4.73;;;2.43;;
21494;SDS011;10909;53.590;10.054;2023-02-28T03:06:45;3.50;;;1.93;;
21494;SDS011;10909;53.590;10.054;2023-02-28T03:09:16;2.67;;;1.70;;
21494;SDS011;10909;53.590;10.054;2023-02-28T03:11:44;3.20;;;1.93;;
21494;SDS011;10909;53.590;10.054;2023-02-28T03:17:13;2.73;;;1.90;;
21494;SDS011;10909;53.590;10.054;2023-02-28T03:30:48;2.47;;;1.80;;
21494;SDS011;10909;53.590;10.054;2023-02-28T03:36:28;2.87;;;1.73;;
21494;SDS011;10909;53.590;10.054;2023-02-28T03:38:58;2.33;;;1.87;;
21494;SDS011;10909;53.590;10.054;2023-02-28T03:41:40;3.10;;;1.90;;
21494;SDS011;10909;53.590;10.054;2023-02-28T03:44:19;3.30;;;1.93;;
21494;SDS011;10909;53.590;10.054;2023-02-28T03:47:21;2.40;;;1.67;;
21494;SDS011;10909;53.590;10.054;2023-02-28T03:50:03;3.27;;;1.80;;
21494;SDS011;10909;53.590;10.054;2023-02-28T03:52:40;2.17;;;1.80;;
21494;SDS011;10909;53.590;10.054;2023-02-28T03:55:15;2.53;;;2.23;;
21494;SDS011;10909;53.590;10.054;2023-02-28T03:57:47;2.90;;;2.07;;
21494;SDS011;10909;53.590;10.054;2023-02-28T04:00:31;3.70;;;2.20;;
21494;SDS011;10909;53.590;10.054;2023-02-28T04:03:02;2.00;;;1.80;;
21494;SDS011;10909;53.590;10.054;2023-02-28T04:05:33;2.73;;;2.07;;
21494;SDS011;10909;53.590;10.054;2023-02-28T04:08:15;2.93;;;2.10;;
21494;SDS011;10909;53.590;10.054;2023-02-28T04:10:42;3.60;;;2.10;;
21494;SDS011;10909;53.590;10.054;2023-02-28T04:13:13;3.07;;;2.13;;
21494;SDS011;10909;53.590;10.054;2023-02-28T04:15:43;3.33;;;2.10;;
21494;SDS011;10909;53.590;10.054;2023-02-28T04:18:13;2.37;;;2.00;;
21494;SDS011;10909;53.590;10.054;2023-02-28T04:20:50;3.13;;;2.20;;
21494;SDS011;10909;53.590;10.054;2023-02-28T04:23:21;3.17;;;2.30;;
21494;SDS011;10909;53.590;10.054;2023-02-28T04:25:49;4.13;;;2.23;;
21494;SDS011;10909;53.590;10.054;2023-02-28T04:28:20;3.07;;;2.33;;
21494;SDS011;10909;53.590;10.054;2023-02-28T04:30:46;4.00;;;2.20;;
21494;SDS011;10909;53.590;10.054;2023-02-28T04:33:16;3.60;;;2.57;;
21494;SDS011;10909;53.590;10.054;2023-02-28T04:35:47;3.80;;;2.30;;
21494;SDS011;10909;53.590;10.054;2023-02-28T04:38:18;2.93;;;2.30;;
21494;SDS011;10909;53.590;10.054;2023-02-28T04:40:45;2.80;;;2.20;;
21494;SDS011;10909;53.590;10.054;2023-02-28T04:43:15;5.10;;;2.60;;
21494;SDS011;10909;53.590;10.054;2023-02-28T04:45:46;4.03;;;2.50;;
21494;SDS011;10909;53.590;10.054;2023-02-28T04:48:14;2.93;;;2.33;;
21494;SDS011;10909;53.590;10.054;2023-02-28T04:50:45;3.97;;;2.50;;
21494;SDS011;10909;53.590;10.054;2023-02-28T04:53:16;3.77;;;2.20;;
21494;SDS011;10909;53.590;10.054;2023-02-28T04:55:46;3.40;;;2.40;;
21494;SDS011;10909;53.590;10.054;2023-02-28T04:58:13;3.60;;;2.23;;
21494;SDS011;10909;53.590;10.054;2023-02-28T05:00:41;3.47;;;2.57;;
21494;SDS011;10909;53.590;10.054;2023-02-28T05:03:09;2.53;;;2.20;;
21494;SDS011;10909;53.590;10.054;2023-02-28T05:05:46;4.20;;;2.30;;
21494;SDS011;10909;53.590;10.054;2023-02-28T05:08:16;4.17;;;2.30;;
21494;SDS011;10909;53.590;10.054;2023-02-28T05:10:47;3.47;;;2.20;;
21494;SDS011;10909;53.590;10.054;2023-02-28T05:13:18;3.47;;;2.47;;
21494;SDS011;10909;53.590;10.054;2023-02-28T05:15:48;2.67;;;1.93;;
21494;SDS011;10909;53.590;10.054;2023-02-28T05:18:19;4.33;;;2.43;;
21494;SDS011;10909;53.590;10.054;2023-02-28T05:21:17;3.17;;;2.13;;
21494;SDS011;10909;53.590;10.054;2023-02-28T05:23:56;3.37;;;1.97;;
21494;SDS011;10909;53.590;10.054;2023-02-28T05:26:24;2.93;;;2.30;;
21494;SDS011;10909;53.590;10.054;2023-02-28T05:28:52;3.13;;;2.40;;
21494;SDS011;10909;53.590;10.054;2023-02-28T05:31:21;5.27;;;2.50;;
21494;SDS011;10909;53.590;10.054;2023-02-28T05:34:04;3.23;;;2.37;;
21494;SDS011;10909;53.590;10.054;2023-02-28T05:36:36;6.53;;;2.80;;
21494;SDS011;10909;53.590;10.054;2023-02-28T05:39:06;3.03;;;2.43;;
21494;SDS011;10909;53.590;10.054;2023-02-28T05:41:37;4.30;;;2.57;;
21494;SDS011;10909;53.590;10.054;2023-02-28T05:44:05;4.00;;;2.80;;
21494;SDS011;10909;53.590;10.054;2023-02-28T05:46:32;4.30;;;2.60;;
21494;SDS011;10909;53.590;10.054;2023-02-28T05:49:04;5.43;;;2.87;;
21494;SDS011;10909;53.590;10.054;2023-02-28T05:51:34;3.97;;;2.33;;
21494;SDS011;10909;53.590;10.054;2023-02-28T05:54:05;3.20;;;2.50;;
21494;SDS011;10909;53.590;10.054;2023-02-28T05:56:42;4.20;;;2.67;;
21494;SDS011;10909;53.590;10.054;2023-02-28T05:59:12;4.10;;;2.83;;
21494;SDS011;10909;53.590;10.054;2023-02-28T06:01:41;3.43;;;2.47;;
21494;SDS011;10909;53.590;10.054;2023-02-28T06:04:13;4.73;;;2.67;;
21494;SDS011;10909;53.590;10.054;2023-02-28T06:06:44;3.67;;;2.77;;
21494;SDS011;10909;53.590;10.054;2023-02-28T06:09:17;5.30;;;2.93;;
21494;SDS011;10909;53.590;10.054;2023-02-28T06:11:50;2.83;;;2.60;;
21494;SDS011;10909;53.590;10.054;2023-02-28T06:14:19;4.77;;;2.70;;
21494;SDS011;10909;53.590;10.054;2023-02-28T06:16:48;4.77;;;2.90;;
21494;SDS011;10909;53.590;10.054;2023-02-28T06:19:18;3.33;;;2.80;;
21494;SDS011;10909;53.590;10.054;2023-02-28T06:21:48;4.03;;;2.70;;
21494;SDS011;10909;53.590;10.054;2023-02-28T06:24:15;4.47;;;2.80;;
21494;SDS011;10909;53.590;10.054;2023-02-28T06:26:56;4.90;;;2.90;;
21494;SDS011;10909;53.590;10.054;2023-02-28T06:29:30;5.33;;;3.00;;
21494;SDS011;10909;53.590;10.054;2023-02-28T06:31:59;4.40;;;2.80;;
21494;SDS011;10909;53.590;10.054;2023-02-28T06:34:27;3.27;;;2.97;;
21494;SDS011;10909;53.590;10.054;2023-02-28T06:37:04;4.40;;;3.23;;
21494;SDS011;10909;53.590;10.054;2023-02-28T06:39:45;4.20;;;3.00;;
21494;SDS011;10909;53.590;10.054;2023-02-28T06:42:15;5.27;;;3.30;;
21494;SDS011;10909;53.590;10.054;2023-02-28T06:44:46;5.40;;;2.83;;
21494;SDS011;10909;53.590;10.054;2023-02-28T06:47:16;5.00;;;3.23;;
21494;SDS011;10909;53.590;10.054;2023-02-28T06:49:52;4.90;;;3.27;;
21494;SDS011;10909;53.590;10.054;2023-02-28T06:52:20;4.03;;;3.10;;
21494;SDS011;10909;53.590;10.054;2023-02-28T06:54:47;5.93;;;3.13;;
21494;SDS011;10909;53.590;10.054;2023-02-28T06:57:23;3.80;;;3.20;;
21494;SDS011;10909;53.590;10.054;2023-02-28T06:59:51;5.70;;;2.93;;
21494;SDS011;10909;53.590;10.054;2023-02-28T07:02:24;3.63;;;2.60;;
21494;SDS011;10909;53.590;10.054;2023-02-28T07:04:51;3.70;;;2.70;;
21494;SDS011;10909;53.590;10.054;2023-02-28T07:07:31;6.00;;;2.90;;
21494;SDS011;10909;53.590;10.054;2023-02-28T07:09:59;3.87;;;2.70;;
21494;SDS011;10909;53.590;10.054;2023-02-28T07:12:29;7.57;;;3.40;;
21494;SDS011;10909;53.590;10.054;2023-02-28T07:14:56;4.47;;;2.97;;
21494;SDS011;10909;53.590;10.054;2023-02-28T07:17:27;3.73;;;3.00;;
21494;SDS011;10909;53.590;10.054;2023-02-28T07:19:55;4.97;;;3.20;;
21494;SDS011;10909;53.590;10.054;2023-02-28T07:22:24;3.70;;;2.77;;
21494;SDS011;10909;53.590;10.054;2023-02-28T07:24:53;6.23;;;2.77;;
21494;SDS011;10909;53.590;10.054;2023-02-28T07:27:22;5.67;;;2.83;;
21494;SDS011;10909;53.590;10.054;2023-02-28T07:29:51;6.03;;;3.20;;
21494;SDS011;10909;53.590;10.054;2023-02-28T07:32:19;4.13;;;2.77;;
21494;SDS011;10909;53.590;10.054;2023-02-28T07:34:50;7.87;;;3.50;;
21494;SDS011;10909;53.590;10.054;2023-02-28T07:37:17;7.20;;;2.83;;
21494;SDS011;10909;53.590;10.054;2023-02-28T07:39:44;4.07;;;2.97;;
21494;SDS011;10909;53.590;10.054;2023-02-28T07:42:14;4.30;;;2.70;;
21494;SDS011;10909;53.590;10.054;2023-02-28T07:44:42;3.40;;;2.53;;
21494;SDS011;10909;53.590;10.054;2023-02-28T07:47:13;4.90;;;3.43;;
21494;SDS011;10909;53.590;10.054;2023-02-28T07:49:41;4.57;;;3.30;;
21494;SDS011;10909;53.590;10.054;2023-02-28T07:52:25;6.80;;;2.93;;
21494;SDS011;10909;53.590;10.054;2023-02-28T07:54:52;4.90;;;3.40;;
21494;SDS011;10909;53.590;10.054;2023-02-28T07:57:23;4.87;;;3.03;;
21494;SDS011;10909;53.590;10.054;2023-02-28T07:59:50;6.60;;;3.20;;
21494;SDS011;10909;53.590;10.054;2023-02-28T08:02:18;5.73;;;3.37;;
21494;SDS011;10909;53.590;10.054;2023-02-28T08:04:49;4.30;;;3.40;;
21494;SDS011;10909;53.590;10.054;2023-02-28T08:07:20;6.30;;;3.40;;
21494;SDS011;10909;53.590;10.054;2023-02-28T08:09:47;6.10;;;3.30;;
21494;SDS011;10909;53.590;10.054;2023-02-28T08:12:18;5.77;;;3.60;;
21494;SDS011;10909;53.590;10.054;2023-02-28T08:14:48;5.03;;;3.13;;
21494;SDS011;10909;53.590;10.054;2023-02-28T08:17:21;5.57;;;3.83;;
21494;SDS011;10909;53.590;10.054;2023-02-28T08:19:48;5.73;;;3.63;;
21494;SDS011;10909;53.590;10.054;2023-02-28T08:22:19;4.90;;;3.50;;
21494;SDS011;10909;53.590;10.054;2023-02-28T08:24:47;5.83;;;3.43;;
21494;SDS011;10909;53.590;10.054;2023-02-28T08:27:22;7.00;;;3.80;;
21494;SDS011;10909;53.590;10.054;2023-02-28T08:29:49;5.37;;;3.60;;
21494;SDS011;10909;53.590;10.054;2023-02-28T08:32:17;5.77;;;3.83;;
21494;SDS011;10909;53.590;10.054;2023-02-28T08:34:49;5.07;;;3.50;;
21494;SDS011;10909;53.590;10.054;2023-02-28T08:37:16;6.10;;;4.00;;
21494;SDS011;10909;53.590;10.054;2023-02-28T08:39:45;7.97;;;4.43;;
21494;SDS011;10909;53.590;10.054;2023-02-28T08:42:19;6.67;;;3.50;;
21494;SDS011;10909;53.590;10.054;2023-02-28T08:45:02;4.87;;;3.50;;
21494;SDS011;10909;53.590;10.054;2023-02-28T08:47:33;4.97;;;3.40;;
21494;SDS011;10909;53.590;10.054;2023-02-28T08:50:16;7.00;;;4.00;;
21494;SDS011;10909;53.590;10.054;2023-02-28T08:52:47;5.57;;;3.57;;
21494;SDS011;10909;53.590;10.054;2023-02-28T08:55:18;6.47;;;3.73;;
21494;SDS011;10909;53.590;10.054;2023-02-28T08:57:46;4.40;;;3.10;;
21494;SDS011;10909;53.590;10.054;2023-02-28T09:00:21;5.43;;;3.70;;
21494;SDS011;10909;53.590;10.054;2023-02-28T09:02:51;5.40;;;3.30;;
21494;SDS011;10909;53.590;10.054;2023-02-28T09:05:21;4.43;;;2.90;;
21494;SDS011;10909;53.590;10.054;2023-02-28T09:07:50;4.87;;;3.33;;
21494;SDS011;10909;53.590;10.054;2023-02-28T09:10:24;2.90;;;2.60;;
21494;SDS011;10909;53.590;10.054;2023-02-28T09:12:57;5.23;;;2.70;;
21494;SDS011;10909;53.590;10.054;2023-02-28T09:15:26;3.77;;;2.50;;
21494;SDS011;10909;53.590;10.054;2023-02-28T09:20:26;3.13;;;2.23;;
21494;SDS011;10909;53.590;10.054;2023-02-28T09:22:57;2.60;;;2.00;;
21494;SDS011;10909;53.590;10.054;2023-02-28T09:25:25;3.10;;;1.87;;
21494;SDS011;10909;53.590;10.054;2023-02-28T09:27:53;3.17;;;1.87;;
21494;SDS011;10909;53.590;10.054;2023-02-28T09:30:24;2.27;;;1.87;;
21494;SDS011;10909;53.590;10.054;2023-02-28T09:32:53;5.30;;;1.70;;
21494;SDS011;10909;53.590;10.054;2023-02-28T09:35:24;4.43;;;1.50;;
21494;SDS011;10909;53.590;10.054;2023-02-28T09:37:52;3.03;;;2.00;;
21494;SDS011;10909;53.590;10.054;2023-02-28T09:40:27;3.73;;;1.80;;
21494;SDS011;10909;53.590;10.054;2023-02-28T09:42:57;2.40;;;1.77;;
21494;SDS011;10909;53.590;10.054;2023-02-28T09:48:50;4.63;;;1.80;;
21494;SDS011;10909;53.590;10.054;2023-02-28T09:53:59;2.47;;;1.80;;
21494;SDS011;10909;53.590;10.054;2023-02-28T09:56:36;2.67;;;1.77;;
21494;SDS011;10909;53.590;10.054;2023-02-28T10:05:12;2.00;;;1.70;;
21494;SDS011;10909;53.590;10.054;2023-02-28T10:07:53;2.37;;;1.60;;
21494;SDS011;10909;53.590;10.054;2023-02-28T10:10:41;1.60;;;1.50;;
21494;SDS011;10909;53.590;10.054;2023-02-28T10:16:32;2.07;;;1.50;;
21494;SDS011;10909;53.590;10.054;2023-02-28T10:22:13;2.83;;;1.70;;
21494;SDS011;10909;53.590;10.054;2023-02-28T10:24:53;2.50;;;1.40;;
21494;SDS011;10909;53.590;10.054;2023-02-28T10:27:30;2.33;;;1.63;;
21494;SDS011;10909;53.590;10.054;2023-02-28T10:30:00;2.23;;;1.50;;
21494;SDS011;10909;53.590;10.054;2023-02-28T10:32:33;2.37;;;1.40;;
21494;SDS011;10909;53.590;10.054;2023-02-28T10:35:18;2.10;;;1.57;;
21494;SDS011;10909;53.590;10.054;2023-02-28T10:37:59;2.13;;;1.57;;
21494;SDS011;10909;53.590;10.054;2023-02-28T10:40:35;2.00;;;1.70;;
21494;SDS011;10909;53.590;10.054;2023-02-28T10:48:44;2.13;;;1.57;;
21494;SDS011;10909;53.590;10.054;2023-02-28T10:51:34;1.90;;;1.50;;
21494;SDS011;10909;53.590;10.054;2023-02-28T10:57:05;2.67;;;1.73;;
21494;SDS011;10909;53.590;10.054;2023-02-28T10:59:42;2.30;;;1.40;;
21494;SDS011;10909;53.590;10.054;2023-02-28T11:02:28;1.90;;;1.43;;
21494;SDS011;10909;53.590;10.054;2023-02-28T11:05:00;3.03;;;1.87;;
21494;SDS011;10909;53.590;10.054;2023-02-28T11:07:32;1.93;;;1.60;;
21494;SDS011;10909;53.590;10.054;2023-02-28T11:10:04;1.90;;;1.50;;
21494;SDS011;10909;53.590;10.054;2023-02-28T11:12:34;2.30;;;1.60;;
21494;SDS011;10909;53.590;10.054;2023-02-28T11:15:24;3.70;;;1.80;;
21494;SDS011;10909;53.590;10.054;2023-02-28T11:17:56;3.07;;;1.57;;
21494;SDS011;10909;53.590;10.054;2023-02-28T11:20:33;1.97;;;1.20;;
21494;SDS011;10909;53.590;10.054;2023-02-28T11:23:10;1.90;;;1.50;;
21494;SDS011;10909;53.590;10.054;2023-02-28T11:25:45;1.97;;;1.50;;
21494;SDS011;10909;53.590;10.054;2023-02-28T11:28:32;2.13;;;1.40;;
21494;SDS011;10909;53.590;10.054;2023-02-28T11:31:15;1.80;;;1.63;;
21494;SDS011;10909;53.590;10.054;2023-02-28T11:33:45;3.60;;;1.87;;
21494;SDS011;10909;53.590;10.054;2023-02-28T11:36:28;2.17;;;1.63;;
21494;SDS011;10909;53.590;10.054;2023-02-28T11:39:07;2.00;;;1.60;;
21494;SDS011;10909;53.590;10.054;2023-02-28T11:41:45;2.40;;;1.83;;
21494;SDS011;10909;53.590;10.054;2023-02-28T11:47:27;2.27;;;1.60;;
21494;SDS011;10909;53.590;10.054;2023-02-28T11:53:06;1.60;;;1.40;;
21494;SDS011;10909;53.590;10.054;2023-02-28T11:55:40;2.40;;;1.47;;
21494;SDS011;10909;53.590;10.054;2023-02-28T12:06:46;1.90;;;1.50;;
21494;SDS011;10909;53.590;10.054;2023-02-28T12:12:42;1.50;;;1.23;;
21494;SDS011;10909;53.590;10.054;2023-02-28T12:24:09;1.43;;;1.30;;
21494;SDS011;10909;53.590;10.054;2023-02-28T12:26:54;3.83;;;1.50;;
21494;SDS011;10909;53.590;10.054;2023-02-28T12:29:29;1.77;;;1.40;;
21494;SDS011;10909;53.590;10.054;2023-02-28T12:32:20;1.93;;;1.73;;
21494;SDS011;10909;53.590;10.054;2023-02-28T12:37:49;1.83;;;1.40;;
21494;SDS011;10909;53.590;10.054;2023-02-28T12:40:22;2.10;;;1.60;;
21494;SDS011;10909;53.590;10.054;2023-02-28T12:43:02;2.30;;;1.40;;
21494;SDS011;10909;53.590;10.054;2023-02-28T12:45:42;1.80;;;1.33;;
21494;SDS011;10909;53.590;10.054;2023-02-28T12:48:59;2.50;;;1.50;;
21494;SDS011;10909;53.590;10.054;2023-02-28T13:02:08;2.23;;;1.50;;
21494;SDS011;10909;53.590;10.054;2023-02-28T13:07:49;2.23;;;1.50;;
21494;SDS011;10909;53.590;10.054;2023-02-28T13:13:11;2.33;;;1.50;;
21494;SDS011;10909;53.590;10.054;2023-02-28T13:16:02;3.28;;;1.70;;
21494;SDS011;10909;53.590;10.054;2023-02-28T13:18:45;3.88;;;1.48;;
21494;SDS011;10909;53.590;10.054;2023-02-28T13:24:36;1.60;;;1.35;;
21494;SDS011;10909;53.590;10.054;2023-02-28T13:29:40;3.05;;;1.55;;
21494;SDS011;10909;53.590;10.054;2023-02-28T13:34:41;3.13;;;1.70;;
21494;SDS011;10909;53.590;10.054;2023-02-28T13:37:33;1.58;;;1.40;;
21494;SDS011;10909;53.590;10.054;2023-02-28T13:40:45;4.00;;;1.40;;
21494;SDS011;10909;53.590;10.054;2023-02-28T13:43:01;1.98;;;1.50;;
21494;SDS011;10909;53.590;10.054;2023-02-28T13:45:29;2.42;;;1.60;;
21494;SDS011;10909;53.590;10.054;2023-02-28T13:48:03;1.95;;;1.67;;
21494;SDS011;10909;53.590;10.054;2023-02-28T13:51:00;2.25;;;1.30;;
21494;SDS011;10909;53.590;10.054;2023-02-28T13:53:57;1.42;;;1.25;;
21494;SDS011;10909;53.590;10.054;2023-02-28T13:59:35;2.40;;;1.55;;
21494;SDS011;10909;53.590;10.054;2023-02-28T14:05:16;2.65;;;1.75;;
21494;SDS011;10909;53.590;10.054;2023-02-28T14:07:56;1.40;;;1.30;;
21494;SDS011;10909;53.590;10.054;2023-02-28T14:10:39;1.50;;;1.30;;
21494;SDS011;10909;53.590;10.054;2023-02-28T14:16:02;1.63;;;1.40;;
21494;SDS011;10909;53.590;10.054;2023-02-28T14:18:31;1.33;;;1.23;;
21494;SDS011;10909;53.590;10.054;2023-02-28T14:29:16;2.00;;;1.33;;
21494;SDS011;10909;53.590;10.054;2023-02-28T14:37:31;1.75;;;1.35;;
21494;SDS011;10909;53.590;10.054;2023-02-28T14:39:59;1.83;;;1.52;;
21494;SDS011;10909;53.590;10.054;2023-02-28T14:42:30;1.50;;;1.30;;
21494;SDS011;10909;53.590;10.054;2023-02-28T14:44:58;1.70;;;1.30;;
21494;SDS011;10909;53.590;10.054;2023-02-28T14:47:42;1.65;;;1.38;;
21494;SDS011;10909;53.590;10.054;2023-02-28T14:50:20;1.88;;;1.35;;
21494;SDS011;10909;53.590;10.054;2023-02-28T14:52:53;1.63;;;1.25;;
21494;SDS011;10909;53.590;10.054;2023-02-28T14:55:43;1.55;;;1.20;;
21494;SDS011;10909;53.590;10.054;2023-02-28T15:00:57;1.65;;;1.30;;
21494;SDS011;10909;53.590;10.054;2023-02-28T15:06:20;2.78;;;1.38;;
21494;SDS011;10909;53.590;10.054;2023-02-28T15:08:48;2.38;;;1.70;;
21494;SDS011;10909;53.590;10.054;2023-02-28T15:11:35;2.28;;;1.10;;
21494;SDS011;10909;53.590;10.054;2023-02-28T15:14:03;2.00;;;1.40;;
21494;SDS011;10909;53.590;10.054;2023-02-28T15:16:32;1.70;;;1.30;;
21494;SDS011;10909;53.590;10.054;2023-02-28T15:19:26;2.38;;;1.73;;
21494;SDS011;10909;53.590;10.054;2023-02-28T15:21:58;1.70;;;1.30;;
21494;SDS011;10909;53.590;10.054;2023-02-28T15:24:34;1.60;;;1.35;;
21494;SDS011;10909;53.590;10.054;2023-02-28T15:27:09;2.80;;;1.50;;
21494;SDS011;10909;53.590;10.054;2023-02-28T15:29:46;1.23;;;1.10;;
21494;SDS011;10909;53.590;10.054;2023-02-28T15:32:35;1.85;;;1.30;;
21494;SDS011;10909;53.590;10.054;2023-02-28T15:38:25;1.25;;;1.10;;
21494;SDS011;10909;53.590;10.054;2023-02-28T15:40:56;1.65;;;1.20;;
21494;SDS011;10909;53.590;10.054;2023-02-28T15:45:57;1.67;;;1.30;;
21494;SDS011;10909;53.590;10.054;2023-02-28T15:51:16;1.80;;;1.20;;
21494;SDS011;10909;53.590;10.054;2023-02-28T15:53:56;1.90;;;1.30;;
21494;SDS011;10909;53.590;10.054;2023-02-28T15:56:33;1.65;;;1.20;;
21494;SDS011;10909;53.590;10.054;2023-02-28T15:59:06;1.80;;;1.15;;
21494;SDS011;10909;53.590;10.054;2023-02-28T16:01:39;4.10;;;1.88;;
21494;SDS011;10909;53.590;10.054;2023-02-28T16:04:06;6.75;;;2.55;;
21494;SDS011;10909;53.590;10.054;2023-02-28T16:06:41;4.80;;;2.00;;
21494;SDS011;10909;53.590;10.054;2023-02-28T16:09:11;2.90;;;1.80;;
21494;SDS011;10909;53.590;10.054;2023-02-28T16:11:46;3.15;;;1.85;;
21494;SDS011;10909;53.590;10.054;2023-02-28T16:14:18;3.95;;;1.50;;
21494;SDS011;10909;53.590;10.054;2023-02-28T16:16:49;2.40;;;1.58;;
21494;SDS011;10909;53.590;10.054;2023-02-28T16:19:16;1.80;;;1.60;;
21494;SDS011;10909;53.590;10.054;2023-02-28T16:21:44;2.22;;;1.60;;
21494;SDS011;10909;53.590;10.054;2023-02-28T16:24:12;2.10;;;1.30;;
21494;SDS011;10909;53.590;10.054;2023-02-28T16:26:39;1.93;;;1.53;;
21494;SDS011;10909;53.590;10.054;2023-02-28T16:29:07;1.90;;;1.40;;
21494;SDS011;10909;53.590;10.054;2023-02-28T16:31:38;1.60;;;1.27;;
21494;SDS011;10909;53.590;10.054;2023-02-28T16:34:05;2.87;;;1.50;;
21494;SDS011;10909;53.590;10.054;2023-02-28T16:36:35;2.57;;;1.30;;
21494;SDS011;10909;53.590;10.054;2023-02-28T16:39:01;2.10;;;1.30;;
21494;SDS011;10909;53.590;10.054;2023-02-28T16:41:29;1.90;;;1.40;;
21494;SDS011;10909;53.590;10.054;2023-02-28T16:43:58;1.73;;;1.40;;
21494;SDS011;10909;53.590;10.054;2023-02-28T16:46:35;1.70;;;1.47;;
21494;SDS011;10909;53.590;10.054;2023-02-28T16:49:02;2.50;;;1.40;;
21494;SDS011;10909;53.590;10.054;2023-02-28T16:51:28;3.60;;;1.80;;
21494;SDS011;10909;53.590;10.054;2023-02-28T16:53:56;2.53;;;1.30;;
21494;SDS011;10909;53.590;10.054;2023-02-28T16:56:23;1.40;;;1.23;;
21494;SDS011;10909;53.590;10.054;2023-02-28T16:58:51;6.63;;;4.57;;
21494;SDS011;10909;53.590;10.054;2023-02-28T17:01:24;3.03;;;2.37;;
21494;SDS011;10909;53.590;10.054;2023-02-28T17:03:52;3.73;;;2.33;;
21494;SDS011;10909;53.590;10.054;2023-02-28T17:06:26;2.30;;;1.60;;
21494;SDS011;10909;53.590;10.054;2023-02-28T17:08:53;2.67;;;1.70;;
21494;SDS011;10909;53.590;10.054;2023-02-28T17:11:20;2.73;;;1.93;;
21494;SDS011;10909;53.590;10.054;2023-02-28T17:13:57;4.23;;;2.00;;
21494;SDS011;10909;53.590;10.054;2023-02-28T17:16:26;3.87;;;1.83;;
21494;SDS011;10909;53.590;10.054;2023-02-28T17:19:01;2.20;;;1.70;;
21494;SDS011;10909;53.590;10.054;2023-02-28T17:21:30;1.97;;;1.30;;
21494;SDS011;10909;53.590;10.054;2023-02-28T17:24:07;2.33;;;1.60;;
21494;SDS011;10909;53.590;10.054;2023-02-28T17:26:33;2.60;;;1.30;;
21494;SDS011;10909;53.590;10.054;2023-02-28T17:29:01;1.80;;;1.50;;
21494;SDS011;10909;53.590;10.054;2023-02-28T17:31:30;1.70;;;1.37;;
21494;SDS011;10909;53.590;10.054;2023-02-28T17:33:57;1.53;;;1.40;;
21494;SDS011;10909;53.590;10.054;2023-02-28T17:36:26;2.50;;;1.70;;
21494;SDS011;10909;53.590;10.054;2023-02-28T17:38:53;1.70;;;1.37;;
21494;SDS011;10909;53.590;10.054;2023-02-28T17:41:21;2.23;;;1.70;;
21494;SDS011;10909;53.590;10.054;2023-02-28T17:43:51;2.17;;;1.40;;